Accueil
METAR-TAF:

METAR-TAF

Aéroports :

Aéroport de Nîmes–Alès–Camargue–Cévennes, Garons

Nîmes, France

latitude: 43-45N, longitude: 004-25E, altitude: 94 m

Observation

Le bulletin a été fait il y a 18 minutes, à 15:30 UTC
Vent 8 kt de sud-est
Température 19°C
Humidité 68%
Pression 1026 hPa
Visibilité 10 km ou plus
Nuages fragmentés à une hauteur de 2300 ft
Ciel couvert à une hauteur de 3000 ft

METAR: LFTW 191530Z AUTO 14008KT 9999 BKN023 OVC030 19/13 Q1026 NOSIG

Heure: 17:48 (15:48 UTC)

Prévision

Le bulletin a été fait il y a 1 heure et 48 minutes, à 14:00 UTC
Prévision valable du 19 à 15 UTC au 20 à 15 UTC
Vent 8 kt de sud-est
Visibilité 10 km ou plus
Nuages fragmentés à une hauteur de 3000 ft
Probabilité 30% :
Temporairement
du 19 à 23 UTC au 20 à 09 UTC
pluie faible

TAF: LFTW 191400Z 1915/2015 13008KT 9999 BKN030 PROB30 TEMPO 1923/2009 -RA

Observations et prévisions météorologiques de plus de 4000 aéroports (messages METAR et TAF).

Les stations disponibles sont représentées par des disques jaunes et rouges sur la carte.

Passer la souris dessus pour voir le nom de la station.

Cliquer dessus pour voir les observations et prévisions météorologiques.

Pour changer de carte: cliquez sur les boutons verts avec une croix noire pour zoomer, sur le bouton vert avec un tiret pour effectuer un zoom arrière, ou sur les flèches vertes pour les cartes adjacentes.


METAR-TAF: